Time;durP1;ratioP1;P1;durP2;ratioP2;P2;SDS_P1;SDS_P2;PMS_P1;PMS_P2;Temp;Humidity;BMP_temperature;BMP_pressure;BME280_temperature;BME280_humidity;BME280_pressure;Samples;Min_cycle;Max_cycle;Signal;HPM_P1;HPM_P2
2022/11/20 00:00:01;;;;;;;16.00;12.63;;;;;;;2.97;100.00;95450.31;5087069;28;20031;-60
2022/11/20 00:02:26;;;;;;;39.33;27.15;;;;;;;2.94;100.00;95453.13;5084240;28;20141;-60
2022/11/20 00:04:51;;;;;;;35.08;28.08;;;;;;;2.92;100.00;95450.63;5080842;28;20054;-59
2022/11/20 00:07:17;;;;;;;37.03;28.80;;;;;;;2.84;100.00;95448.53;5085103;28;20024;-61
2022/11/20 00:09:42;;;;;;;41.15;29.95;;;;;;;2.76;100.00;95455.16;5080563;28;20119;-59
2022/11/20 00:12:07;;;;;;;45.08;28.48;;;;;;;2.68;100.00;95450.47;5086057;28;20032;-59
2022/11/20 00:14:33;;;;;;;41.88;29.65;;;;;;;2.59;100.00;95464.88;5080312;28;20448;-59
2022/11/20 00:16:58;;;;;;;46.08;32.92;;;;;;;2.54;100.00;95466.94;5089944;28;20060;-59
2022/11/20 00:19:24;;;;;;;53.30;33.38;;;;;;;2.46;100.00;95464.00;5091201;28;20024;-59
2022/11/20 00:21:51;;;;;;;46.90;32.55;;;;;;;2.44;100.00;95469.28;5090274;28;20099;-60
2022/11/20 00:24:16;;;;;;;55.05;37.50;;;;;;;2.38;100.00;95472.28;5095568;28;20034;-67
2022/11/20 00:26:42;;;;;;;56.55;39.25;;;;;;;2.32;100.00;95476.09;5087218;28;20017;-64
2022/11/20 00:29:09;;;;;;;53.90;36.42;;;;;;;2.32;100.00;95489.09;5069904;28;20028;-63
2022/11/20 00:31:35;;;;;;;54.88;36.90;;;;;;;2.27;100.00;95486.78;5070761;28;20132;-63
2022/11/20 00:34:00;;;;;;;54.15;36.58;;;;;;;2.23;100.00;95485.31;5070991;28;20453;-63
2022/11/20 00:36:27;;;;;;;55.65;37.20;;;;;;;2.18;100.00;95484.75;5071032;28;20013;-63
2022/11/20 00:38:55;;;;;;;50.75;34.50;;;;;;;2.12;100.00;95485.16;5070990;28;20108;-63
2022/11/20 00:41:21;;;;;;;54.00;37.20;;;;;;;2.11;100.00;95486.09;5071059;28;20468;-64
2022/11/20 00:43:47;;;;;;;51.47;32.85;;;;;;;2.11;100.00;95488.69;5071283;28;20028;-66
2022/11/20 00:46:14;;;;;;;52.95;32.70;;;;;;;2.15;100.00;95484.94;5070977;28;20043;-61
2022/11/20 00:48:40;;;;;;;51.33;32.70;;;;;;;2.20;100.00;95485.50;5074508;28;20024;-65
2022/11/20 00:51:05;;;;;;;37.80;24.25;;;;;;;2.18;100.00;95497.75;5078005;28;20032;-65
2022/11/20 00:53:31;;;;;;;29.48;19.70;;;;;;;2.18;100.00;95487.34;5070219;28;20028;-65
2022/11/20 00:56:06;;;;;;;30.63;19.35;;;;;;;2.18;100.00;95497.75;5065857;28;20494;-65
2022/11/20 00:58:34;;;;;;;38.90;19.83;;;;;;;2.19;100.00;95495.97;5070809;28;20086;-65
2022/11/20 01:01:08;;;;;;;32.08;16.42;;;;;;;2.20;100.00;95501.09;5070511;28;20446;-65
2022/11/20 01:03:36;;;;;;;35.17;20.63;;;;;;;2.20;100.00;95501.09;5070998;28;20081;-62
2022/11/20 01:06:02;;;;;;;37.75;19.42;;;;;;;2.23;100.00;95511.28;5070668;28;20409;-65
2022/11/20 01:08:32;;;;;;;38.20;20.02;;;;;;;2.24;100.00;95499.97;5071359;28;20056;-65
2022/11/20 01:10:59;;;;;;;34.25;18.40;;;;;;;2.23;100.00;95511.28;5076974;28;20169;-66
2022/11/20 01:13:58;;;;;;;34.45;18.73;;;;;;;2.23;100.00;95510.47;5089316;28;20097;-65
2022/11/20 01:16:31;;;;;;;28.35;16.40;;;;;;;2.20;100.00;95513.22;5079045;28;20036;-65
2022/11/20 01:18:59;;;;;;;27.10;16.73;;;;;;;2.22;100.00;95516.59;5089413;28;20043;-66
2022/11/20 01:21:28;;;;;;;29.63;16.05;;;;;;;2.20;100.00;95521.00;5088100;28;20032;-56
2022/11/20 01:23:54;;;;;;;25.30;14.73;;;;;;;2.20;100.00;95518.41;5082735;28;20630;-60
2022/11/20 01:26:22;;;;;;;24.08;14.25;;;;;;;2.19;100.00;95520.19;5077246;28;20032;-66
2022/11/20 01:28:48;;;;;;;22.58;12.68;;;;;;;2.20;100.00;95523.59;5082017;28;20513;-65
2022/11/20 01:31:35;;;;;;;23.75;13.52;;;;;;;2.20;100.00;95531.41;5077951;28;20098;-65
2022/11/20 01:34:06;;;;;;;20.80;12.32;;;;;;;2.13;100.00;95520.59;5084940;28;20508;-65
2022/11/20 01:36:33;;;;;;;19.60;11.35;;;;;;;2.09;100.00;95522.53;5086484;28;20020;-65
2022/11/20 01:39:02;;;;;;;20.20;11.10;;;;;;;2.03;100.00;95519.47;5077061;28;20038;-65
2022/11/20 01:44:14;;;;;;;;;;;;;;;1.97;100.00;95521.50;5076167;28;20116;-63
2022/11/20 01:46:48;;;;;;;17.52;8.40;;;;;;;1.98;100.00;95517.97;5074289;28;19923;-63
2022/11/20 01:49:23;;;;;;;17.20;11.10;;;;;;;2.03;100.00;95527.25;5076476;28;20056;-63
2022/11/20 01:51:54;;;;;;;13.77;9.77;;;;;;;2.06;100.00;95524.47;5080436;28;20470;-63
2022/11/20 01:54:44;;;;;;;16.20;9.77;;;;;;;2.10;100.00;95525.94;5076804;28;20055;-63
2022/11/20 01:57:12;;;;;;;12.82;8.75;;;;;;;2.07;100.00;95526.97;5083539;28;20042;-63
2022/11/20 01:59:44;;;;;;;11.73;8.52;;;;;;;2.09;100.00;95527.72;5071594;28;20017;-60
2022/11/20 02:02:09;;;;;;;12.02;8.75;;;;;;;2.13;100.00;95528.38;5072920;28;20085;-61
2022/11/20 02:04:35;;;;;;;10.85;6.93;;;;;;;2.21;100.00;95522.69;5070776;28;20036;-59
2022/11/20 02:07:02;;;;;;;9.02;7.05;;;;;;;2.26;100.00;95526.66;5081017;28;20028;-59
2022/11/20 02:09:28;;;;;;;9.98;7.00;;;;;;;2.33;100.00;95528.91;5088944;28;20027;-59
2022/11/20 02:11:54;;;;;;;8.10;7.28;;;;;;;2.39;100.00;95520.72;5085141;28;20123;-59
2022/11/20 02:14:22;;;;;;;7.88;6.90;;;;;;;2.42;100.00;95523.94;5071763;28;20061;-59
2022/11/20 02:16:48;;;;;;;8.35;6.50;;;;;;;2.40;100.00;95520.59;5085159;28;20031;-59
2022/11/20 02:19:23;;;;;;;7.78;6.70;;;;;;;2.39;100.00;95528.53;5072525;28;20028;-65
2022/11/20 02:22:12;;;;;;;7.60;6.55;;;;;;;2.36;100.00;95523.53;5085219;28;20413;-63
2022/11/20 02:24:39;;;;;;;7.63;6.30;;;;;;;2.35;100.00;95514.88;5087557;28;20035;-57
2022/11/20 02:27:15;;;;;;;7.45;6.65;;;;;;;2.39;100.00;95515.53;5088946;28;20050;-57
2022/11/20 02:29:52;;;;;;;8.52;6.00;;;;;;;2.37;100.00;95518.22;5075325;28;20085;-58
2022/11/20 02:32:21;;;;;;;5.63;5.00;;;;;;;2.35;100.00;95525.28;5081455;28;20044;-57
2022/11/20 02:34:47;;;;;;;8.20;6.03;;;;;;;2.35;100.00;95516.66;5087550;28;20044;-57
2022/11/20 02:37:13;;;;;;;7.28;5.20;;;;;;;2.33;100.00;95521.13;5084853;28;20048;-57
2022/11/20 02:39:40;;;;;;;7.05;4.82;;;;;;;2.32;100.00;95519.41;5078484;28;20519;-61
2022/11/20 02:42:05;;;;;;;5.75;4.90;;;;;;;2.33;100.00;95526.31;5081764;28;20039;-58
2022/11/20 02:44:31;;;;;;;5.50;5.00;;;;;;;2.33;100.00;95528.91;5073233;28;20020;-57
2022/11/20 02:46:59;;;;;;;7.63;4.45;;;;;;;2.36;100.00;95526.13;5088427;28;20490;-57
2022/11/20 02:49:25;;;;;;;6.00;5.10;;;;;;;2.38;100.00;95532.88;5079765;28;20038;-57
2022/11/20 02:51:50;;;;;;;8.43;5.45;;;;;;;2.41;100.00;95521.47;5081454;28;20038;-58
2022/11/20 02:54:16;;;;;;;10.23;7.30;;;;;;;2.43;100.00;95525.66;5076241;28;20036;-56
2022/11/20 02:56:41;;;;;;;12.80;8.98;;;;;;;2.47;100.00;95521.06;5074218;28;20559;-56
2022/11/20 02:59:07;;;;;;;12.95;9.65;;;;;;;2.54;100.00;95521.53;5080150;28;20024;-66
2022/11/20 03:01:33;;;;;;;19.48;10.80;;;;;;;2.54;100.00;95518.94;5084255;28;20051;-60
2022/11/20 03:03:58;;;;;;;15.60;10.57;;;;;;;2.46;100.00;95524.59;5080302;28;20059;-60
2022/11/20 03:06:23;;;;;;;14.20;10.88;;;;;;;2.48;100.00;95521.91;5079525;28;20020;-60
2022/11/20 03:08:49;;;;;;;15.32;9.88;;;;;;;2.51;100.00;95519.94;5076329;28;20079;-60
2022/11/20 03:11:14;;;;;;;13.90;11.82;;;;;;;2.57;100.00;95534.31;5082842;28;20501;-60
2022/11/20 03:13:40;;;;;;;14.30;11.02;;;;;;;2.63;100.00;95522.72;5080546;28;20013;-60
2022/11/20 03:16:11;;;;;;;18.58;11.80;;;;;;;2.65;100.00;95524.28;5069309;28;20394;-60
2022/11/20 03:18:37;;;;;;;18.02;12.70;;;;;;;2.64;100.00;95519.19;5075289;28;20099;-59
2022/11/20 03:21:03;;;;;;;17.95;12.63;;;;;;;2.63;100.00;95525.31;5078639;28;20490;-61
2022/11/20 03:23:30;;;;;;;14.88;11.50;;;;;;;2.64;100.00;95525.19;5082220;28;20085;-61
2022/11/20 03:26:06;;;;;;;16.08;11.18;;;;;;;2.65;100.00;95520.84;5082131;28;20402;-61
2022/11/20 03:28:31;;;;;;;16.83;11.70;;;;;;;2.69;100.00;95522.31;5082891;28;20490;-61
2022/11/20 03:30:56;;;;;;;14.75;11.65;;;;;;;2.66;100.00;95522.50;5083662;28;20032;-61
2022/11/20 03:33:22;;;;;;;16.23;11.48;;;;;;;2.66;100.00;95523.34;5083168;28;20039;-61
2022/11/20 03:35:47;;;;;;;15.30;11.60;;;;;;;2.68;100.00;95531.03;5081617;28;20038;-61
2022/11/20 03:38:12;;;;;;;13.73;11.27;;;;;;;2.67;100.00;95535.41;5078688;28;20108;-67
2022/11/20 03:40:38;;;;;;;15.75;10.88;;;;;;;2.67;100.00;95534.56;5074650;28;20060;-65
2022/11/20 03:43:03;;;;;;;12.82;9.80;;;;;;;2.66;100.00;95535.50;5085546;28;20023;-65
2022/11/20 03:45:28;;;;;;;12.80;10.20;;;;;;;2.64;100.00;95545.16;5078554;28;20024;-65
2022/11/20 03:47:54;;;;;;;12.25;10.45;;;;;;;2.66;100.00;95540.72;5079844;28;20073;-66
2022/11/20 03:50:19;;;;;;;13.50;11.25;;;;;;;2.71;100.00;95547.28;5075661;28;20078;-66
2022/11/20 03:52:44;;;;;;;15.38;10.95;;;;;;;2.69;100.00;95545.72;5084157;28;20018;-65
2022/11/20 03:55:10;;;;;;;12.82;10.95;;;;;;;2.70;100.00;95544.78;5077456;28;20029;-65
2022/11/20 03:57:35;;;;;;;14.07;10.63;;;;;;;2.70;100.00;95544.78;5078832;28;20032;-65
2022/11/20 04:00:00;;;;;;;16.15;13.38;;;;;;;2.68;100.00;95551.84;5080787;28;20019;-57
2022/11/20 04:02:26;;;;;;;12.38;9.98;;;;;;;2.70;100.00;95550.81;5080181;28;20032;-56
2022/11/20 04:04:51;;;;;;;8.60;7.78;;;;;;;2.81;100.00;95557.09;5081842;28;20039;-57
2022/11/20 04:07:17;;;;;;;7.53;6.82;;;;;;;2.81;100.00;95552.75;5082702;28;20028;-57
2022/11/20 04:09:42;;;;;;;8.65;6.85;;;;;;;2.84;100.00;95551.69;5078354;28;20020;-56
2022/11/20 04:12:07;;;;;;;5.95;5.43;;;;;;;2.85;100.00;95553.34;5084037;28;20460;-56
2022/11/20 04:14:33;;;;;;;5.82;4.70;;;;;;;2.86;100.00;95555.88;5066482;28;20028;-55
2022/11/20 04:16:58;;;;;;;5.65;4.25;;;;;;;2.91;100.00;95553.00;5078959;28;20020;-60
2022/11/20 04:19:23;;;;;;;3.83;3.53;;;;;;;3.06;100.00;95552.91;5083160;28;20031;-60
2022/11/20 04:21:49;;;;;;;6.47;3.72;;;;;;;3.12;100.00;95560.34;5080309;28;20027;-61
2022/11/20 04:24:14;;;;;;;4.40;4.00;;;;;;;3.15;100.00;95560.97;5086530;28;20512;-60
2022/11/20 04:26:40;;;;;;;3.88;3.67;;;;;;;3.19;100.00;95560.75;5085298;28;20474;-60
2022/11/20 04:29:05;;;;;;;4.63;4.18;;;;;;;3.20;100.00;95562.44;5065777;28;20024;-60
2022/11/20 04:31:33;;;;;;;4.75;3.88;;;;;;;3.23;100.00;95563.06;5086300;28;20627;-61
2022/11/20 04:34:03;;;;;;;6.35;4.28;;;;;;;3.26;100.00;95577.66;5080183;28;20033;-60
2022/11/20 04:36:29;;;;;;;6.38;4.72;;;;;;;3.21;100.00;95575.34;5085001;28;20023;-61
2022/11/20 04:39:03;;;;;;;4.07;3.78;;;;;;;3.21;100.00;95569.31;5081267;28;20047;-61
2022/11/20 04:41:32;;;;;;;3.03;2.80;;;;;;;3.29;100.00;95577.47;5079670;28;20024;-61
2022/11/20 04:44:02;;;;;;;3.10;2.85;;;;;;;3.28;100.00;95576.59;5079764;28;20024;-61
2022/11/20 04:46:30;;;;;;;2.97;2.83;;;;;;;3.34;100.00;95577.97;5080257;28;20105;-61
2022/11/20 04:48:56;;;;;;;3.55;3.25;;;;;;;3.34;100.00;95575.38;5078617;28;20089;-61
2022/11/20 04:51:21;;;;;;;3.55;3.28;;;;;;;3.37;100.00;95569.97;5081302;28;20608;-62
2022/11/20 04:53:47;;;;;;;3.20;2.90;;;;;;;3.42;100.00;95573.09;5078116;28;20051;-61
2022/11/20 04:56:13;;;;;;;4.38;3.92;;;;;;;3.44;100.00;95576.47;5080135;28;20028;-61
2022/11/20 04:58:39;;;;;;;3.90;3.55;;;;;;;3.46;100.00;95578.13;5080676;28;20444;-61
2022/11/20 05:01:11;;;;;;;3.25;2.88;;;;;;;3.47;100.00;95575.41;5085871;28;20023;-61
2022/11/20 05:03:38;;;;;;;3.63;3.30;;;;;;;3.59;100.00;95581.56;5075252;28;20024;-61
2022/11/20 05:06:05;;;;;;;3.42;3.08;;;;;;;3.64;100.00;95579.50;5082230;28;20024;-61
2022/11/20 05:08:31;;;;;;;4.57;3.40;;;;;;;3.80;100.00;95584.53;5086156;28;20030;-61
2022/11/20 05:11:02;;;;;;;3.67;3.30;;;;;;;3.75;100.00;95578.78;5076517;28;20556;-61
2022/11/20 05:13:27;;;;;;;5.32;3.08;;;;;;;3.71;100.00;95578.16;5082601;28;20516;-61
2022/11/20 05:15:53;;;;;;;4.38;3.67;;;;;;;3.70;100.00;95580.84;5083423;28;20073;-61
2022/11/20 05:18:18;;;;;;;5.30;3.97;;;;;;;3.70;100.00;95584.31;5083897;28;20020;-60
2022/11/20 05:20:43;;;;;;;5.13;4.00;;;;;;;3.71;100.00;95587.72;5074062;28;20020;-61
2022/11/20 05:23:09;;;;;;;4.65;3.85;;;;;;;3.69;100.00;95579.19;5076468;28;20024;-61
2022/11/20 05:25:34;;;;;;;5.82;3.47;;;;;;;3.75;100.00;95577.97;5096020;28;20020;-61
2022/11/20 05:27:59;;;;;;;4.13;3.10;;;;;;;3.74;100.00;95582.31;5082575;28;20040;-60
2022/11/20 05:30:25;;;;;;;4.32;3.92;;;;;;;3.83;100.00;95581.72;5080587;28;20024;-61
2022/11/20 05:32:50;;;;;;;4.07;3.67;;;;;;;3.77;100.00;95581.28;5073917;28;20599;-64
2022/11/20 05:35:15;;;;;;;4.57;3.85;;;;;;;3.79;100.00;95587.22;5087823;28;20099;-65
2022/11/20 05:37:41;;;;;;;6.50;4.13;;;;;;;3.78;100.00;95583.81;5085985;28;20520;-59
2022/11/20 05:40:07;;;;;;;4.47;4.07;;;;;;;3.78;100.00;95586.41;5087639;28;20020;-59
2022/11/20 05:42:32;;;;;;;3.60;3.30;;;;;;;3.71;100.00;95583.38;5084404;28;20024;-59
2022/11/20 05:44:59;;;;;;;3.97;3.67;;;;;;;3.74;100.00;95587.53;5088293;28;20046;-59
2022/11/20 05:47:26;;;;;;;4.00;3.60;;;;;;;3.76;100.00;95584.84;5088887;28;20094;-59
2022/11/20 05:49:52;;;;;;;3.72;3.42;;;;;;;3.71;100.00;95585.97;5091500;28;20145;-59
2022/11/20 05:52:17;;;;;;;5.40;4.30;;;;;;;3.73;100.00;95593.66;5092797;28;20099;-67
2022/11/20 05:54:43;;;;;;;5.25;4.25;;;;;;;3.73;100.00;95596.28;5088585;28;20031;-57
2022/11/20 05:57:08;;;;;;;4.50;3.55;;;;;;;3.83;100.00;95589.53;5086428;28;20021;-63
2022/11/20 05:59:33;;;;;;;4.10;3.70;;;;;;;3.78;100.00;95599.44;5088374;28;20028;-63
2022/11/20 06:01:59;;;;;;;7.53;3.78;;;;;;;3.69;100.00;95597.41;5083850;28;20120;-62
2022/11/20 06:04:24;;;;;;;5.07;3.95;;;;;;;3.62;100.00;95591.78;5082661;28;20066;-63
2022/11/20 06:06:49;;;;;;;4.30;4.00;;;;;;;3.63;100.00;95590.03;5085090;28;20024;-64
2022/11/20 06:09:15;;;;;;;4.60;4.07;;;;;;;3.64;100.00;95587.31;5088294;28;20174;-63
2022/11/20 06:11:40;;;;;;;7.32;5.10;;;;;;;3.54;100.00;95588.84;5087957;28;20027;-61
2022/11/20 06:14:05;;;;;;;5.70;5.13;;;;;;;3.47;100.00;95593.63;5091382;28;20505;-63
2022/11/20 06:16:31;;;;;;;7.55;6.95;;;;;;;3.39;100.00;95585.50;5093160;28;20031;-65
2022/11/20 06:18:56;;;;;;;8.68;7.90;;;;;;;3.30;100.00;95584.31;5085442;28;20032;-65
2022/11/20 06:21:22;;;;;;;7.88;7.00;;;;;;;3.20;100.00;95583.25;5082865;28;20101;-65
2022/11/20 06:23:49;;;;;;;9.02;8.20;;;;;;;3.10;100.00;95589.03;5085617;28;20028;-64
2022/11/20 06:26:23;;;;;;;6.43;5.00;;;;;;;2.99;100.00;95591.53;5088441;28;20485;-65
2022/11/20 06:28:49;;;;;;;7.15;4.55;;;;;;;2.92;100.00;95598.88;5080963;28;20029;-64
2022/11/20 06:31:17;;;;;;;4.70;4.40;;;;;;;2.82;100.00;95590.81;5072490;28;20021;-66
2022/11/20 06:33:43;;;;;;;5.00;4.20;;;;;;;2.73;100.00;95593.97;5077632;28;20081;-58
2022/11/20 06:36:10;;;;;;;5.93;4.13;;;;;;;2.64;100.00;95597.16;5091988;28;20044;-56
2022/11/20 06:38:36;;;;;;;4.85;4.00;;;;;;;2.58;100.00;95601.81;5090415;28;21311;-57
2022/11/20 06:41:03;;;;;;;7.13;3.65;;;;;;;2.53;100.00;95600.44;5083752;28;20035;-55
2022/11/20 06:43:29;;;;;;;4.40;4.00;;;;;;;2.50;100.00;95598.03;5078844;28;20021;-58
2022/11/20 06:45:56;;;;;;;4.50;4.10;;;;;;;2.49;100.00;95602.38;5076833;28;20102;-56
2022/11/20 06:48:23;;;;;;;5.30;4.20;;;;;;;2.47;100.00;95588.63;5078522;28;20036;-57
2022/11/20 06:50:48;;;;;;;4.65;4.25;;;;;;;2.42;100.00;95590.69;5081282;28;20041;-59
2022/11/20 06:53:14;;;;;;;6.05;4.38;;;;;;;2.39;100.00;95590.88;5080027;28;20079;-61
2022/11/20 06:55:46;;;;;;;4.45;4.10;;;;;;;2.38;100.00;95591.81;5083175;28;20081;-61
2022/11/20 06:58:13;;;;;;;5.85;4.55;;;;;;;2.39;100.00;95583.09;5092266;28;20020;-61
2022/11/20 07:00:39;;;;;;;4.72;4.32;;;;;;;2.37;100.00;95577.97;5085710;28;20012;-61
2022/11/20 07:03:09;;;;;;;7.30;6.60;;;;;;;2.37;100.00;95584.94;5088435;28;20464;-61
2022/11/20 07:05:36;;;;;;;9.00;8.25;;;;;;;2.35;100.00;95586.81;5093630;28;20559;-62
2022/11/20 07:08:02;;;;;;;6.82;6.22;;;;;;;2.32;100.00;95593.00;5075706;28;20074;-61
2022/11/20 07:10:28;;;;;;;6.47;5.72;;;;;;;2.23;100.00;95594.41;5078382;28;20024;-59
2022/11/20 07:12:54;;;;;;;5.25;4.78;;;;;;;2.23;100.00;95599.59;5075565;28;20024;-61
2022/11/20 07:15:21;;;;;;;6.78;6.10;;;;;;;2.14;100.00;95594.97;5087696;28;20114;-60
2022/11/20 07:17:46;;;;;;;6.65;5.85;;;;;;;2.11;100.00;95600.38;5072341;28;20027;-61
2022/11/20 07:20:13;;;;;;;7.75;6.63;;;;;;;2.10;100.00;95609.06;5075376;28;20020;-61
2022/11/20 07:22:38;;;;;;;10.23;7.97;;;;;;;2.07;100.00;95612.69;5091076;28;20113;-61
2022/11/20 07:25:04;;;;;;;14.10;9.32;;;;;;;2.05;100.00;95617.13;5074591;28;20083;-61
2022/11/20 07:27:30;;;;;;;16.10;10.63;;;;;;;2.06;100.00;95616.22;5084807;28;20020;-56
2022/11/20 07:29:55;;;;;;;21.20;14.18;;;;;;;2.05;100.00;95624.06;5081104;28;20052;-59
2022/11/20 07:32:21;;;;;;;14.52;12.98;;;;;;;2.11;100.00;95621.97;5084768;28;20050;-61
2022/11/20 07:34:46;;;;;;;17.88;12.65;;;;;;;2.19;100.00;95637.09;5075793;28;20105;-61
2022/11/20 07:37:12;;;;;;;17.15;12.27;;;;;;;2.29;100.00;95634.78;5086659;28;20024;-61
2022/11/20 07:39:37;;;;;;;19.58;11.93;;;;;;;2.29;100.00;95629.56;5078469;28;20035;-61
2022/11/20 07:42:03;;;;;;;15.32;11.80;;;;;;;2.32;100.00;95641.53;5073074;28;20048;-61
2022/11/20 07:44:28;;;;;;;19.85;13.95;;;;;;;2.33;100.00;95643.22;5075209;28;20028;-61
2022/11/20 07:46:53;;;;;;;18.40;14.35;;;;;;;2.37;100.00;95642.13;5072996;28;20470;-56
2022/11/20 07:49:19;;;;;;;16.38;12.95;;;;;;;2.46;100.00;95651.13;5075235;28;20051;-58
2022/11/20 07:51:44;;;;;;;16.92;12.38;;;;;;;2.54;100.00;95641.94;5081643;28;20046;-65
2022/11/20 07:54:09;;;;;;;17.73;9.82;;;;;;;2.60;100.00;95643.28;5085413;28;20023;-66
2022/11/20 07:56:35;;;;;;;9.95;8.18;;;;;;;2.66;100.00;95645.53;5084875;28;20021;-71
2022/11/20 07:59:00;;;;;;;14.10;12.77;;;;;;;2.74;100.00;95639.84;5082668;28;20099;-70
2022/11/20 08:01:25;;;;;;;14.63;13.20;;;;;;;2.81;100.00;95642.91;5079597;28;20123;-71
2022/11/20 08:03:51;;;;;;;13.43;12.02;;;;;;;2.88;100.00;95635.56;5077945;28;20031;-71
2022/11/20 08:06:17;;;;;;;9.98;8.27;;;;;;;2.96;100.00;95635.91;5078086;28;20032;-62
2022/11/20 08:08:42;;;;;;;8.98;7.82;;;;;;;3.04;100.00;95633.66;5080892;28;20125;-62
2022/11/20 08:16:36;;;;;;;8.35;7.40;;;;;;;3.39;100.00;95634.94;5080088;28;20039;-60
2022/11/20 08:19:01;;;;;;;6.20;5.18;;;;;;;3.52;100.00;95635.81;5083891;28;20028;-61
2022/11/20 08:21:26;;;;;;;6.68;5.97;;;;;;;3.63;100.00;95631.69;5081381;28;20017;-60
2022/11/20 08:23:52;;;;;;;5.75;3.88;;;;;;;3.67;100.00;95628.78;5080713;28;20103;-60
2022/11/20 08:26:17;;;;;;;5.53;4.30;;;;;;;3.69;100.00;95637.31;5079764;28;20115;-61
2022/11/20 08:28:43;;;;;;;8.45;7.25;;;;;;;3.65;100.00;95640.22;5075318;28;20055;-59
2022/11/20 08:31:09;;;;;;;5.53;5.03;;;;;;;3.60;100.00;95637.91;5074019;28;20111;-60
2022/11/20 08:33:35;;;;;;;4.53;4.13;;;;;;;3.54;100.00;95640.94;5087191;28;20499;-60
2022/11/20 08:36:02;;;;;;;5.32;4.82;;;;;;;3.43;100.00;95637.25;5087040;28;20461;-60
2022/11/20 08:38:27;;;;;;;9.20;5.03;;;;;;;3.36;100.00;95635.97;5083760;28;20028;-60
2022/11/20 08:43:40;;;;;;;7.65;6.15;;;;;;;3.22;100.00;95633.44;5081901;28;20100;-60
2022/11/20 08:46:06;;;;;;;30.95;20.25;;;;;;;3.20;100.00;95630.06;5088430;28;20486;-60
2022/11/20 08:48:31;;;;;;;21.08;14.35;;;;;;;3.20;100.00;95635.28;5086219;28;20020;-59
2022/11/20 08:50:59;;;;;;;13.93;9.30;;;;;;;3.15;100.00;95639.00;5080034;28;20032;-60
2022/11/20 08:53:24;;;;;;;8.85;7.95;;;;;;;3.11;100.00;95637.53;5074284;28;20560;-60
2022/11/20 08:55:50;;;;;;;9.50;8.52;;;;;;;3.08;100.00;95632.53;5078229;28;20013;-61
2022/11/20 08:58:15;;;;;;;10.02;8.10;;;;;;;3.14;100.00;95618.31;5080812;28;20454;-60
2022/11/20 09:00:41;;;;;;;7.53;6.75;;;;;;;3.24;100.00;95621.16;5078567;28;20016;-61
2022/11/20 09:03:06;;;;;;;12.95;5.80;;;;;;;3.42;100.00;95625.16;5073440;28;20115;-59
2022/11/20 09:05:31;;;;;;;11.10;9.27;;;;;;;3.65;100.00;95632.41;5077017;28;20363;-59
2022/11/20 09:07:58;;;;;;;8.50;6.53;;;;;;;3.77;100.00;95623.81;5073449;28;20401;-60
2022/11/20 09:10:23;;;;;;;9.75;7.25;;;;;;;3.87;100.00;95619.63;5077160;28;20028;-60
2022/11/20 09:12:49;;;;;;;9.25;5.25;;;;;;;3.92;100.00;95621.94;5073939;28;20088;-60
2022/11/20 09:15:14;;;;;;;6.07;5.03;;;;;;;3.87;100.00;95622.25;5087139;28;20108;-60
2022/11/20 09:17:40;;;;;;;11.43;7.22;;;;;;;3.89;100.00;95624.75;5082382;28;20024;-60
2022/11/20 09:20:06;;;;;;;9.02;6.32;;;;;;;3.93;100.00;95633.19;5076311;28;20081;-60
2022/11/20 09:22:31;;;;;;;14.13;9.75;;;;;;;3.89;100.00;95636.94;5080721;28;20111;-60
2022/11/20 09:24:56;;;;;;;11.68;7.97;;;;;;;3.81;100.00;95632.22;5083406;28;20035;-63
2022/11/20 09:27:22;;;;;;;10.55;6.05;;;;;;;3.88;100.00;95636.13;5069987;28;20028;-61
2022/11/20 09:29:47;;;;;;;11.50;8.43;;;;;;;4.11;100.00;95641.56;5070285;28;20382;-59
2022/11/20 09:32:13;;;;;;;6.35;5.30;;;;;;;4.36;100.00;95645.09;5070169;28;20083;-59
2022/11/20 09:34:38;;;;;;;3.75;3.45;;;;;;;4.64;100.00;95637.97;5070992;28;20510;-60
2022/11/20 09:37:03;;;;;;;4.40;3.60;;;;;;;4.81;100.00;95645.47;5070140;28;20690;-59
2022/11/20 09:39:29;;;;;;;3.67;3.15;;;;;;;4.93;99.00;95648.13;5072773;28;20496;-60
2022/11/20 09:42:13;;;;;;;3.25;3.00;;;;;;;5.09;98.52;95653.13;5089348;28;20024;-60
2022/11/20 09:45:01;;;;;;;3.60;3.30;;;;;;;5.24;94.16;95653.81;5089061;28;20046;-62
2022/11/20 09:47:50;;;;;;;3.53;3.22;;;;;;;5.28;92.46;95652.63;5088991;28;20055;-60
2022/11/20 09:50:41;;;;;;;4.50;3.15;;;;;;;5.34;95.19;95657.41;5089137;28;20081;-60
2022/11/20 09:53:16;;;;;;;4.00;3.70;;;;;;;5.37;94.56;95657.19;5051534;28;20032;-61
2022/11/20 09:55:42;;;;;;;3.90;3.50;;;;;;;5.44;94.36;95654.97;5069361;28;21269;-60
2022/11/20 09:58:19;;;;;;;3.67;3.38;;;;;;;5.52;94.47;95659.63;5069140;28;20033;-60
2022/11/20 10:00:44;;;;;;;9.90;4.22;;;;;;;5.48;94.19;95664.25;5069057;28;20079;-60
2022/11/20 10:03:41;;;;;;;4.35;3.95;;;;;;;5.55;92.74;95665.47;5069263;28;20028;-60
2022/11/20 10:06:13;;;;;;;3.45;3.22;;;;;;;5.64;92.67;95668.34;5069247;28;20520;-60
2022/11/20 10:08:50;;;;;;;4.00;3.22;;;;;;;5.67;91.91;95670.75;5068581;28;20032;-60
2022/11/20 10:11:45;;;;;;;3.22;3.03;;;;;;;5.77;93.81;95679.59;5086638;28;20028;-60
2022/11/20 10:14:29;;;;;;;3.03;2.83;;;;;;;5.94;92.39;95670.50;5087977;28;20497;-60
2022/11/20 10:16:57;;;;;;;3.10;2.90;;;;;;;5.98;90.65;95677.16;5087243;28;20032;-60
2022/11/20 10:19:46;;;;;;;4.38;3.20;;;;;;;6.06;90.69;95666.16;5088630;28;20032;-60
2022/11/20 10:22:35;;;;;;;3.45;3.15;;;;;;;6.28;89.30;95661.94;5081974;28;20509;-71
2022/11/20 10:25:14;;;;;;;3.58;3.00;;;;;;;6.41;87.38;95667.06;5072040;28;20028;-60
2022/11/20 10:28:15;;;;;;;3.50;3.20;;;;;;;6.51;87.81;95660.16;5074042;28;20041;-60
2022/11/20 10:30:43;;;;;;;5.25;2.90;;;;;;;6.68;87.86;95668.50;5085346;28;20107;-60
2022/11/20 10:33:22;;;;;;;5.30;3.58;;;;;;;6.66;84.74;95670.41;5086349;28;20684;-60
2022/11/20 10:36:07;;;;;;;3.92;3.35;;;;;;;6.74;84.95;95671.50;5086665;28;20055;-60
2022/11/20 10:38:49;;;;;;;5.28;3.58;;;;;;;6.87;83.22;95674.00;5084190;28;20035;-60
2022/11/20 10:41:24;;;;;;;4.28;3.67;;;;;;;7.03;85.41;95663.16;5087992;28;20243;-61
2022/11/20 10:43:58;;;;;;;3.80;3.50;;;;;;;7.20;84.91;95660.19;5086368;28;20455;-72
2022/11/20 10:46:25;;;;;;;4.32;3.60;;;;;;;7.30;83.94;95668.94;5086292;28;20026;-60
2022/11/20 10:48:51;;;;;;;4.22;3.83;;;;;;;7.27;81.03;95658.72;5089050;28;20486;-60
2022/11/20 10:51:34;;;;;;;5.38;3.35;;;;;;;7.45;83.00;95657.25;5086385;28;20027;-60
2022/11/20 10:54:23;;;;;;;3.40;3.10;;;;;;;7.45;79.04;95654.63;5092259;28;20024;-61
2022/11/20 10:56:56;;;;;;;7.55;3.33;;;;;;;7.63;81.90;95654.09;5084176;28;20800;-60
2022/11/20 10:59:43;;;;;;;3.33;3.00;;;;;;;7.91;80.79;95658.88;5085023;28;20028;-61
2022/11/20 11:02:21;;;;;;;4.40;3.03;;;;;;;7.90;80.43;95665.91;5074623;28;20085;-60
2022/11/20 11:04:49;;;;;;;3.65;3.35;;;;;;;7.81;79.92;95666.66;5074040;28;20498;-65
2022/11/20 11:07:21;;;;;;;4.05;3.33;;;;;;;7.72;80.52;95658.59;5058230;28;20024;-65
2022/11/20 11:09:52;;;;;;;3.50;3.20;;;;;;;7.77;81.20;95650.34;5076985;28;20406;-65
2022/11/20 11:12:18;;;;;;;3.40;3.20;;;;;;;7.79;79.99;95637.09;5079021;28;20016;-65
2022/11/20 11:14:50;;;;;;;3.40;3.13;;;;;;;7.63;78.28;95637.53;5084634;28;20035;-66
2022/11/20 11:17:33;;;;;;;3.17;2.88;;;;;;;7.63;79.05;95634.91;5092619;28;20031;-65
2022/11/20 11:20:03;;;;;;;3.10;2.50;;;;;;;7.73;76.52;95641.91;5083011;28;20085;-60
2022/11/20 11:22:32;;;;;;;3.20;2.28;;;;;;;7.87;73.31;95651.25;5091875;28;20028;-56
2022/11/20 11:24:58;;;;;;;2.45;2.25;;;;;;;7.93;72.93;95649.06;5091358;28;20528;-60
2022/11/20 11:27:23;;;;;;;4.05;2.35;;;;;;;7.99;73.74;95649.41;5091695;28;20028;-60
2022/11/20 11:29:49;;;;;;;2.53;2.33;;;;;;;8.14;72.15;95649.09;5091682;28;20028;-60
2022/11/20 11:32:18;;;;;;;2.55;2.25;;;;;;;8.24;69.68;95642.13;5091710;28;20698;-60
2022/11/20 11:34:43;;;;;;;3.30;2.20;;;;;;;8.34;69.49;95646.59;5091523;28;20384;-60
2022/11/20 11:37:17;;;;;;;2.00;1.90;;;;;;;8.31;68.23;95647.69;5091075;28;20141;-60
2022/11/20 11:39:46;;;;;;;1.80;1.70;;;;;;;8.32;67.70;95637.06;5089151;28;20023;-60
2022/11/20 11:42:17;;;;;;;3.15;2.03;;;;;;;8.38;66.82;95630.47;5084722;28;20608;-70
2022/11/20 11:45:05;;;;;;;3.28;2.00;;;;;;;8.41;64.26;95632.00;5079948;28;20121;-71